createdAt,value
2023-06-27T00:01:52.560Z,101269.44
2023-06-27T00:04:20.311Z,101267.66
2023-06-27T00:06:47.819Z,101267.66
2023-06-27T00:09:16.238Z,101275.81
2023-06-27T00:11:43.423Z,101273.13
2023-06-27T00:14:10.852Z,101271.28
2023-06-27T00:16:39.240Z,101276.66
2023-06-27T00:19:06.523Z,101283.81
2023-06-27T00:21:34.722Z,101285.72
2023-06-27T00:24:02.515Z,101291.09
2023-06-27T00:26:29.796Z,101284.88
2023-06-27T00:28:57.174Z,101288.47
2023-06-27T00:31:24.547Z,101283.16
2023-06-27T00:33:51.769Z,101280.56
2023-06-27T00:36:18.767Z,101287.75
2023-06-27T00:38:45.909Z,101278.88
2023-06-27T00:41:12.857Z,101278.97
2023-06-27T00:43:39.722Z,101275.44
2023-06-27T00:46:08.515Z,101278.19
2023-06-27T00:48:35.699Z,101282.75
2023-06-27T00:51:04.628Z,101281.03
2023-06-27T00:53:31.779Z,101280.22
2023-06-27T00:55:59.075Z,101282.06
2023-06-27T00:58:26.634Z,101275.88
2023-06-27T01:00:53.538Z,101279.53
2023-06-27T01:03:22.114Z,101282.31
2023-06-27T01:05:49.398Z,101284.19
2023-06-27T01:08:35.711Z,101279.78
2023-06-27T01:11:29.636Z,101287.13
2023-06-27T01:13:58.159Z,101283.59
2023-06-27T01:16:30.087Z,101289.88
2023-06-27T01:18:58.506Z,101289.13
2023-06-27T01:21:29.849Z,101282.00
2023-06-27T01:24:03.706Z,101283.88
2023-06-27T01:26:31.357Z,101287.59
2023-06-27T01:28:58.240Z,101281.38
2023-06-27T01:31:40.702Z,101280.56
2023-06-27T01:34:24.119Z,101285.97
2023-06-27T01:37:22.113Z,101275.34
2023-06-27T01:39:58.196Z,101273.63
2023-06-27T01:42:30.088Z,101275.53
2023-06-27T01:44:58.334Z,101279.25
2023-06-27T01:47:26.174Z,101286.50
2023-06-27T01:49:53.061Z,101279.34
2023-06-27T01:52:20.376Z,101278.50
2023-06-27T01:54:47.315Z,101268.66
2023-06-27T01:57:14.162Z,101267.84
2023-06-27T01:59:40.971Z,101267.91
2023-06-27T02:02:08.002Z,101267.97
2023-06-27T02:04:35.357Z,101263.53
2023-06-27T02:07:02.223Z,101268.09
2023-06-27T02:09:29.056Z,101261.84
2023-06-27T02:11:55.896Z,101265.56
2023-06-27T02:14:22.677Z,101266.47
2023-06-27T02:16:49.466Z,101259.38
2023-06-27T02:19:16.280Z,101262.13
2023-06-27T02:21:44.331Z,101263.97
2023-06-27T02:24:11.124Z,101262.19
2023-06-27T02:26:37.979Z,101260.50
2023-06-27T02:29:04.799Z,101264.09
2023-06-27T02:31:31.645Z,101263.28
2023-06-27T02:33:58.503Z,101262.41
2023-06-27T02:36:28.371Z,101252.56
2023-06-27T02:38:56.113Z,101257.13
2023-06-27T02:41:25.954Z,101267.03
2023-06-27T02:43:53.041Z,101262.66
2023-06-27T02:46:20.130Z,101264.47
2023-06-27T02:48:47.066Z,101266.34
2023-06-27T02:51:14.025Z,101264.59
2023-06-27T02:53:40.823Z,101270.03
2023-06-27T02:56:08.998Z,101256.63
2023-06-27T02:58:36.058Z,101266.50
2023-06-27T03:01:07.429Z,101265.72
2023-06-27T03:03:35.315Z,101270.22
2023-06-27T03:06:09.978Z,101273.81
2023-06-27T03:08:40.346Z,101271.22
2023-06-27T03:11:07.150Z,101271.25
2023-06-27T03:13:34.011Z,101265.00
2023-06-27T03:16:02.015Z,101266.88
2023-06-27T03:18:29.072Z,101261.53
2023-06-27T03:20:55.942Z,101264.28
2023-06-27T03:23:22.776Z,101258.06
2023-06-27T03:25:49.777Z,101267.88
2023-06-27T03:28:16.576Z,101260.75
2023-06-27T03:30:44.746Z,101260.78
2023-06-27T03:33:12.206Z,101254.50
2023-06-27T03:35:39.970Z,101259.03
2023-06-27T03:38:07.066Z,101263.47
2023-06-27T03:40:34.031Z,101259.88
2023-06-27T03:43:01.769Z,101266.22
2023-06-27T03:45:29.404Z,101259.94
2023-06-27T03:47:56.358Z,101264.44
2023-06-27T03:50:23.570Z,101266.25
2023-06-27T03:52:50.420Z,101266.22
2023-06-27T03:55:17.341Z,101260.88
2023-06-27T03:57:44.179Z,101258.19
2023-06-27T04:00:12.097Z,101262.66
2023-06-27T04:02:39.078Z,101268.97
2023-06-27T04:05:06.689Z,101263.59
2023-06-27T04:07:33.738Z,101266.25
2023-06-27T04:10:00.686Z,101266.16
2023-06-27T04:12:27.558Z,101260.78
2023-06-27T04:14:54.420Z,101267.03
2023-06-27T04:17:21.712Z,101258.94
2023-06-27T04:19:48.597Z,101258.06
2023-06-27T04:22:15.609Z,101258.94
2023-06-27T04:24:42.412Z,101257.06
2023-06-27T04:27:09.910Z,101265.19
2023-06-27T04:29:37.872Z,101270.56
2023-06-27T04:32:05.351Z,101270.56
2023-06-27T04:34:32.237Z,101277.72
2023-06-27T04:36:59.062Z,101274.16
2023-06-27T04:39:25.873Z,101269.69
2023-06-27T04:41:52.677Z,101277.72
2023-06-27T04:44:22.032Z,101284.81
2023-06-27T04:46:48.834Z,101278.53
2023-06-27T04:49:15.837Z,101281.19
2023-06-27T04:51:42.692Z,101280.16
2023-06-27T04:54:09.518Z,101270.25
2023-06-27T04:56:36.370Z,101271.97
2023-06-27T04:59:03.233Z,101279.06
2023-06-27T05:01:30.169Z,101279.03
2023-06-27T05:04:05.257Z,101273.56
2023-06-27T05:06:34.118Z,101273.47
2023-06-27T05:09:02.450Z,101268.97
2023-06-27T05:11:29.535Z,101265.25
2023-06-27T05:13:56.396Z,101269.72
2023-06-27T05:16:23.832Z,101271.38
2023-06-27T05:18:50.698Z,101267.66
2023-06-27T05:21:17.548Z,101267.56
2023-06-27T05:23:44.613Z,101261.22
2023-06-27T05:26:11.436Z,101266.56
2023-06-27T05:28:38.384Z,101270.94
2023-06-27T05:31:05.327Z,101267.28
2023-06-27T05:33:32.255Z,101264.56
2023-06-27T05:35:59.107Z,101263.63
2023-06-27T05:38:25.968Z,101259.97
2023-06-27T05:40:52.768Z,101269.69
2023-06-27T05:43:21.786Z,101269.63
2023-06-27T05:45:48.647Z,101270.38
2023-06-27T05:48:15.519Z,101267.56
2023-06-27T05:50:42.344Z,101266.59
2023-06-27T05:53:09.204Z,101268.31
2023-06-27T05:55:35.994Z,101270.00
2023-06-27T05:58:02.806Z,101267.25
2023-06-27T06:00:30.864Z,101270.75
2023-06-27T06:02:57.857Z,101269.72
2023-06-27T06:05:24.747Z,101264.31
2023-06-27T06:07:52.046Z,101266.88
2023-06-27T06:10:19.800Z,101265.97
2023-06-27T06:12:46.630Z,101266.78
2023-06-27T06:15:13.465Z,101268.41
2023-06-27T06:17:40.812Z,101268.31
2023-06-27T06:20:12.003Z,101269.00
2023-06-27T06:22:39.365Z,101274.28
2023-06-27T06:25:06.761Z,101276.94
2023-06-27T06:27:33.728Z,101273.25
2023-06-27T06:30:00.559Z,101276.78
2023-06-27T06:32:27.490Z,101270.38
2023-06-27T06:34:54.359Z,101280.09
2023-06-27T06:37:22.994Z,101275.56
2023-06-27T06:39:49.818Z,101277.31
2023-06-27T06:42:16.602Z,101273.59
2023-06-27T06:44:43.478Z,101271.72
2023-06-27T06:47:10.418Z,101276.13
2023-06-27T06:49:37.302Z,101272.47
2023-06-27T06:52:04.384Z,101273.38
2023-06-27T06:54:31.225Z,101275.97
2023-06-27T06:56:58.061Z,101261.56
2023-06-27T06:59:24.856Z,101261.41
2023-06-27T07:01:52.252Z,101263.00
2023-06-27T07:04:19.149Z,101255.69
2023-06-27T07:06:46.018Z,101257.34
2023-06-27T07:09:12.821Z,101250.09
2023-06-27T07:11:39.692Z,101250.88
2023-06-27T07:14:06.499Z,101248.06
2023-06-27T07:16:33.347Z,101247.03
2023-06-27T07:19:00.164Z,101250.53
2023-06-27T07:21:27.114Z,101243.28
2023-06-27T07:23:53.983Z,101251.28
2023-06-27T07:26:21.760Z,101238.53
2023-06-27T07:28:48.674Z,101235.50
2023-06-27T07:31:15.614Z,101239.31
2023-06-27T07:33:42.413Z,101236.34
2023-06-27T07:36:09.334Z,101240.63
2023-06-27T07:38:36.136Z,101237.75
2023-06-27T07:41:03.663Z,101233.22
2023-06-27T07:43:30.535Z,101224.09
2023-06-27T07:45:57.437Z,101232.19
2023-06-27T07:48:24.285Z,101237.38
2023-06-27T07:50:51.091Z,101224.63
2023-06-27T07:53:17.894Z,101231.50
2023-06-27T07:55:44.710Z,101229.50
2023-06-27T07:58:11.490Z,101230.94
2023-06-27T08:00:40.174Z,101228.06
2023-06-27T08:03:07.291Z,101227.97
2023-06-27T08:05:36.310Z,101225.19
2023-06-27T08:08:03.485Z,101227.00
2023-06-27T08:10:30.648Z,101221.50
2023-06-27T08:12:57.558Z,101221.50
2023-06-27T08:15:24.415Z,101214.25
2023-06-27T08:17:51.515Z,101221.41
2023-06-27T08:20:19.108Z,101227.75
2023-06-27T08:22:46.356Z,101218.63
2023-06-27T08:25:13.250Z,101221.13
2023-06-27T08:27:40.090Z,101221.94
2023-06-27T08:30:08.382Z,101223.47
2023-06-27T08:32:35.270Z,101217.13
2023-06-27T08:35:05.276Z,101209.09
2023-06-27T08:37:32.369Z,101216.44
2023-06-27T08:39:59.221Z,101209.22
2023-06-27T08:42:26.372Z,101199.16
2023-06-27T08:44:53.752Z,101210.78
2023-06-27T08:47:26.739Z,101213.50
2023-06-27T08:50:03.117Z,101202.69
2023-06-27T08:52:35.085Z,101209.72
2023-06-27T08:55:05.881Z,101198.69
2023-06-27T08:57:34.422Z,101207.47
2023-06-27T09:00:13.135Z,101200.03
2023-06-27T09:02:42.388Z,101195.44
2023-06-27T09:05:10.069Z,101191.81
2023-06-27T09:07:37.531Z,101205.31
2023-06-27T09:10:04.789Z,101191.63
2023-06-27T09:12:33.899Z,101192.38
2023-06-27T09:15:00.730Z,101186.72
2023-06-27T09:17:27.602Z,101192.88
2023-06-27T09:19:54.484Z,101196.09
2023-06-27T09:22:24.397Z,101185.63
2023-06-27T09:24:51.280Z,101185.38
2023-06-27T09:27:33.031Z,101185.06
2023-06-27T09:30:04.435Z,101184.97
2023-06-27T09:32:31.541Z,101182.94
2023-06-27T09:35:03.738Z,101184.38
2023-06-27T09:40:21.668Z,101188.25
2023-06-27T09:42:56.732Z,101192.63
2023-06-27T09:45:25.183Z,101197.09
2023-06-27T09:47:52.452Z,101188.97
2023-06-27T09:50:28.690Z,101195.84
2023-06-27T09:53:00.611Z,101199.38
2023-06-27T09:55:28.427Z,101189.50
2023-06-27T09:57:55.647Z,101192.13
2023-06-27T10:00:23.810Z,101190.88
2023-06-27T10:02:52.068Z,101185.09
2023-06-27T10:05:22.020Z,101191.06
2023-06-27T10:07:51.338Z,101181.91
2023-06-27T10:10:25.166Z,101179.25
2023-06-27T10:12:53.540Z,101188.34
2023-06-27T10:15:20.998Z,101182.84
2023-06-27T10:17:48.488Z,101178.31
2023-06-27T10:20:15.579Z,101180.06
2023-06-27T10:22:45.691Z,101180.66
2023-06-27T10:25:13.513Z,101172.28
2023-06-27T10:27:43.601Z,101163.97
2023-06-27T10:30:27.105Z,101170.78
2023-06-27T10:33:21.951Z,101158.94
2023-06-27T10:35:55.232Z,101156.06
2023-06-27T10:38:22.768Z,101145.84
2023-06-27T10:41:03.417Z,101148.06
2023-06-27T10:43:37.562Z,101146.66
2023-06-27T10:46:27.654Z,101143.56
2023-06-27T10:49:07.869Z,101141.91
2023-06-27T10:51:43.058Z,101143.94
2023-06-27T10:54:10.012Z,101142.56
2023-06-27T10:56:42.101Z,101130.34
2023-06-27T10:59:27.852Z,101128.09
2023-06-27T11:02:08.228Z,101134.78
2023-06-27T11:04:44.419Z,101123.50
2023-06-27T11:07:18.867Z,101116.97
2023-06-27T11:09:57.465Z,101118.03
2023-06-27T11:12:24.682Z,101123.28
2023-06-27T11:14:55.217Z,101115.78
2023-06-27T11:17:26.828Z,101112.81
2023-06-27T11:19:57.621Z,101129.19
2023-06-27T11:22:25.262Z,101128.69
2023-06-27T11:24:52.088Z,101132.97
2023-06-27T11:27:20.339Z,101139.16
2023-06-27T11:29:47.159Z,101134.53
2023-06-27T11:32:14.143Z,101145.16
2023-06-27T11:34:44.087Z,101157.44
2023-06-27T11:37:12.771Z,101148.97
2023-06-27T11:39:39.806Z,101141.25
2023-06-27T11:42:07.089Z,101143.38
2023-06-27T11:44:35.993Z,101141.97
2023-06-27T11:47:06.482Z,101135.25
2023-06-27T11:49:34.294Z,101153.72
2023-06-27T11:52:01.505Z,101157.78
2023-06-27T11:54:28.361Z,101160.69
2023-06-27T11:57:01.954Z,101159.13
2023-06-27T11:59:33.282Z,101168.59
2023-06-27T12:02:00.248Z,101154.47
2023-06-27T12:04:27.248Z,101149.88
2023-06-27T12:06:54.141Z,101147.00
2023-06-27T12:09:28.172Z,101146.88
2023-06-27T12:11:59.400Z,101151.97
2023-06-27T12:14:27.956Z,101141.44
2023-06-27T12:16:54.853Z,101136.31
2023-06-27T12:19:23.905Z,101132.00
2023-06-27T12:21:53.819Z,101126.59
2023-06-27T12:24:21.447Z,101118.56
2023-06-27T12:26:48.777Z,101116.56
2023-06-27T12:29:17.622Z,101115.59
2023-06-27T12:31:47.038Z,101108.09
2023-06-27T12:34:14.369Z,101109.53
2023-06-27T12:36:41.203Z,101104.34
2023-06-27T12:39:08.162Z,101097.16
2023-06-27T12:41:35.157Z,101089.34
2023-06-27T12:44:02.097Z,101100.88
2023-06-27T12:46:29.021Z,101089.84
2023-06-27T12:48:55.834Z,101082.28
2023-06-27T12:51:23.376Z,101084.22
2023-06-27T12:53:50.257Z,101088.19
2023-06-27T12:56:17.615Z,101086.75
2023-06-27T12:58:47.443Z,101079.25
2023-06-27T13:01:14.928Z,101079.03
2023-06-27T13:03:41.861Z,101080.63
2023-06-27T13:06:08.947Z,101079.72
2023-06-27T13:08:35.766Z,101076.34
2023-06-27T13:11:02.779Z,101081.16
2023-06-27T13:13:34.667Z,101087.09
2023-06-27T13:16:13.781Z,101088.50
2023-06-27T13:18:41.749Z,101084.31
2023-06-27T13:21:08.596Z,101091.66
2023-06-27T13:23:35.907Z,101092.00
2023-06-27T13:26:02.820Z,101076.94
2023-06-27T13:28:29.774Z,101090.69
2023-06-27T13:30:56.613Z,101089.09
2023-06-27T13:33:24.957Z,101087.66
2023-06-27T13:35:51.804Z,101087.91
2023-06-27T13:38:18.974Z,101084.09
2023-06-27T13:40:45.879Z,101079.88
2023-06-27T13:43:12.707Z,101072.94
2023-06-27T13:45:39.777Z,101067.88
2023-06-27T13:48:06.705Z,101066.19
2023-06-27T13:50:33.651Z,101058.22
2023-06-27T13:53:00.641Z,101052.75
2023-06-27T13:55:28.594Z,101047.69
2023-06-27T13:57:55.492Z,101047.59
2023-06-27T14:00:22.335Z,101041.03
2023-06-27T14:02:49.764Z,101057.31
2023-06-27T14:05:16.891Z,101053.03
2023-06-27T14:07:43.775Z,101077.75
2023-06-27T14:10:10.611Z,101090.94
2023-06-27T14:12:38.726Z,101086.22
2023-06-27T14:15:06.259Z,101083.44
2023-06-27T14:17:33.593Z,101087.72
2023-06-27T14:20:00.613Z,101082.22
2023-06-27T14:22:27.784Z,101078.50
2023-06-27T14:24:54.626Z,101086.34
2023-06-27T14:27:21.710Z,101105.09
2023-06-27T14:29:48.597Z,101095.91
2023-06-27T14:32:15.453Z,101100.22
2023-06-27T14:34:42.305Z,101103.00
2023-06-27T14:37:10.006Z,101092.50
2023-06-27T14:39:36.817Z,101087.22
2023-06-27T14:42:04.305Z,101088.66
2023-06-27T14:44:34.484Z,101080.72
2023-06-27T14:47:01.613Z,101075.41
2023-06-27T14:49:28.423Z,101068.19
2023-06-27T14:51:55.267Z,101062.47
2023-06-27T14:54:22.194Z,101059.38
2023-06-27T14:56:50.067Z,101049.69
2023-06-27T14:59:17.833Z,101037.38
2023-06-27T15:01:44.781Z,101042.31
2023-06-27T15:04:11.705Z,101048.19
2023-06-27T15:06:38.633Z,101037.03
2023-06-27T15:09:05.569Z,101043.03
2023-06-27T15:11:32.449Z,101050.75
2023-06-27T15:13:59.248Z,101044.91
2023-06-27T15:16:26.107Z,101037.34
2023-06-27T15:18:52.952Z,101033.50
2023-06-27T15:21:19.768Z,101038.56
2023-06-27T15:23:46.649Z,101033.75
2023-06-27T15:26:13.470Z,101032.63
2023-06-27T15:28:40.269Z,101028.81
2023-06-27T15:31:09.294Z,101023.22
2023-06-27T15:33:36.212Z,101019.19
2023-06-27T15:36:03.524Z,101025.22
2023-06-27T15:38:30.455Z,101020.41
2023-06-27T15:40:57.347Z,101034.63
2023-06-27T15:43:24.188Z,101055.19
2023-06-27T15:45:51.042Z,101057.19
2023-06-27T15:48:19.030Z,101062.91
2023-06-27T15:50:45.830Z,101056.81
2023-06-27T15:53:12.695Z,101047.88
2023-06-27T15:55:39.501Z,101062.28
2023-06-27T15:58:06.349Z,101062.22
2023-06-27T16:00:33.225Z,101048.59
2023-06-27T16:03:00.162Z,101054.09
2023-06-27T16:05:27.174Z,101045.97
2023-06-27T16:07:54.248Z,101057.69
2023-06-27T16:10:23.829Z,101050.41
2023-06-27T16:12:50.786Z,101044.81
2023-06-27T16:15:17.673Z,101051.88
2023-06-27T16:17:44.772Z,101036.50
2023-06-27T16:20:11.988Z,101047.34
2023-06-27T16:22:38.843Z,101041.03
2023-06-27T16:25:06.148Z,101040.19
2023-06-27T16:27:32.999Z,101032.06
2023-06-27T16:29:59.823Z,101029.34
2023-06-27T16:32:26.693Z,101024.53
2023-06-27T16:34:53.564Z,101026.03
2023-06-27T16:37:20.470Z,101032.00
2023-06-27T16:39:47.332Z,101026.38
2023-06-27T16:42:14.149Z,101028.03
2023-06-27T16:44:40.981Z,101012.63
2023-06-27T16:47:07.829Z,101029.09
2023-06-27T16:49:34.651Z,101019.59
2023-06-27T16:52:01.527Z,101025.34
2023-06-27T16:54:28.355Z,101032.84
2023-06-27T16:56:55.208Z,101020.50
2023-06-27T16:59:22.080Z,101025.16
2023-06-27T17:01:52.151Z,101021.63
2023-06-27T17:04:21.700Z,101021.75
2023-06-27T17:06:48.555Z,101031.78
2023-06-27T17:09:15.452Z,101027.31
2023-06-27T17:11:42.288Z,101028.25
2023-06-27T17:14:09.127Z,101037.47
2023-06-27T17:16:35.970Z,101030.38
2023-06-27T17:19:02.838Z,101034.06
2023-06-27T17:21:30.555Z,101037.91
2023-06-27T17:23:57.432Z,101038.03
2023-06-27T17:26:24.239Z,101041.91
2023-06-27T17:28:51.449Z,101038.56
2023-06-27T17:31:18.291Z,101038.75
2023-06-27T17:33:45.103Z,101029.72
2023-06-27T17:36:12.069Z,101041.44
2023-06-27T17:38:38.879Z,101044.16
2023-06-27T17:41:05.669Z,101051.16
2023-06-27T17:43:32.522Z,101048.38
2023-06-27T17:46:00.111Z,101053.72
2023-06-27T17:48:26.987Z,101057.19
2023-06-27T17:50:53.888Z,101059.03
2023-06-27T17:53:21.058Z,101057.19
2023-06-27T17:55:47.877Z,101055.56
2023-06-27T17:58:14.749Z,101054.03
2023-06-27T18:00:42.647Z,101064.25
2023-06-27T18:03:10.054Z,101061.88
2023-06-27T18:05:36.975Z,101052.25
2023-06-27T18:08:03.982Z,101058.81
2023-06-27T18:10:30.835Z,101056.31
2023-06-27T18:12:57.740Z,101056.63
2023-06-27T18:15:26.008Z,101046.13
2023-06-27T18:17:52.939Z,101043.66
2023-06-27T18:20:20.250Z,101055.63
2023-06-27T18:22:47.048Z,101046.94
2023-06-27T18:25:13.879Z,101050.78
2023-06-27T18:27:43.449Z,101055.47
2023-06-27T18:30:10.806Z,101062.88
2023-06-27T18:32:37.720Z,101066.63
2023-06-27T18:35:05.076Z,101063.09
2023-06-27T18:37:31.980Z,101067.66
2023-06-27T18:39:58.836Z,101065.91
2023-06-27T18:42:25.667Z,101071.47
2023-06-27T18:44:52.611Z,101067.00
2023-06-27T18:47:19.441Z,101067.16
2023-06-27T18:49:46.341Z,101066.38
2023-06-27T18:52:13.266Z,101074.56
2023-06-27T18:54:40.089Z,101073.88
2023-06-27T18:57:07.980Z,101074.00
2023-06-27T18:59:35.021Z,101074.31
2023-06-27T19:02:03.339Z,101072.72
2023-06-27T19:04:30.749Z,101073.81
2023-06-27T19:06:57.765Z,101079.53
2023-06-27T19:09:25.936Z,101084.28
2023-06-27T19:11:52.831Z,101084.44
2023-06-27T19:14:19.782Z,101091.91
2023-06-27T19:16:46.667Z,101102.00
2023-06-27T19:19:14.132Z,101102.06
2023-06-27T19:21:41.632Z,101099.53
2023-06-27T19:24:11.706Z,101105.94
2023-06-27T19:26:38.682Z,101112.41
2023-06-27T19:29:05.543Z,101105.28
2023-06-27T19:31:32.456Z,101116.19
2023-06-27T19:33:59.348Z,101110.06
2023-06-27T19:36:26.177Z,101113.78
2023-06-27T19:38:54.921Z,101114.88
2023-06-27T19:41:23.046Z,101119.56
2023-06-27T19:43:49.979Z,101122.50
2023-06-27T19:46:16.845Z,101123.69
2023-06-27T19:48:43.771Z,101122.94
2023-06-27T19:51:11.747Z,101123.31
2023-06-27T19:53:39.213Z,101132.53
2023-06-27T19:56:07.993Z,101133.81
2023-06-27T19:58:38.551Z,101138.50
2023-06-27T20:01:09.175Z,101134.25
2023-06-27T20:03:36.101Z,101130.88
2023-06-27T20:06:03.032Z,101132.84
2023-06-27T20:08:29.952Z,101141.06
2023-06-27T20:10:56.855Z,101136.69
2023-06-27T20:13:23.771Z,101148.63
2023-06-27T20:15:50.915Z,101149.78
2023-06-27T20:18:17.799Z,101149.03
2023-06-27T20:20:44.841Z,101149.28
2023-06-27T20:23:11.911Z,101147.63
2023-06-27T20:25:38.862Z,101153.19
2023-06-27T20:28:05.651Z,101146.16
2023-06-27T20:30:32.562Z,101147.25
2023-06-27T20:32:59.422Z,101152.09
2023-06-27T20:35:26.287Z,101149.66
2023-06-27T20:37:53.159Z,101143.56
2023-06-27T20:40:20.048Z,101154.50
2023-06-27T20:42:48.442Z,101154.66
2023-06-27T20:45:16.011Z,101154.75
2023-06-27T20:47:42.857Z,101154.88
2023-06-27T20:50:10.657Z,101151.50
2023-06-27T20:52:37.604Z,101152.56
2023-06-27T20:55:04.780Z,101155.41
2023-06-27T20:57:31.653Z,101156.53
2023-06-27T20:59:58.573Z,101157.53
2023-06-27T21:02:25.676Z,101149.50
2023-06-27T21:04:54.173Z,101161.28
2023-06-27T21:07:21.106Z,101157.88
2023-06-27T21:09:47.995Z,101166.91
2023-06-27T21:12:14.847Z,101161.63
2023-06-27T21:14:41.715Z,101167.97
2023-06-27T21:17:08.558Z,101169.03
2023-06-27T21:19:35.453Z,101168.25
2023-06-27T21:22:02.847Z,101162.13
2023-06-27T21:24:29.774Z,101166.72
2023-06-27T21:26:56.687Z,101158.72
2023-06-27T21:29:25.291Z,101159.69
2023-06-27T21:31:52.226Z,101164.25
2023-06-27T21:34:19.669Z,101167.13
2023-06-27T21:36:46.536Z,101158.28
2023-06-27T21:39:13.384Z,101168.22
2023-06-27T21:41:40.287Z,101163.81
2023-06-27T21:44:07.142Z,101165.66
2023-06-27T21:46:35.728Z,101170.22
2023-06-27T21:49:02.644Z,101179.28
2023-06-27T21:51:29.628Z,101175.88
2023-06-27T21:53:56.490Z,101174.09
2023-06-27T21:56:23.294Z,101168.84
2023-06-27T21:58:50.180Z,101165.31
2023-06-27T22:01:17.084Z,101175.28
2023-06-27T22:03:44.186Z,101176.22
2023-06-27T22:06:11.734Z,101162.00
2023-06-27T22:08:38.685Z,101174.56
2023-06-27T22:11:06.040Z,101167.56
2023-06-27T22:13:33.076Z,101178.41
2023-06-27T22:15:59.931Z,101174.91
2023-06-27T22:18:26.874Z,101181.34
2023-06-27T22:20:53.695Z,101181.41
2023-06-27T22:23:20.520Z,101186.94
2023-06-27T22:25:47.385Z,101188.88
2023-06-27T22:28:14.294Z,101186.34
2023-06-27T22:30:41.555Z,101188.28
2023-06-27T22:33:08.754Z,101182.94
2023-06-27T22:35:35.707Z,101183.06
2023-06-27T22:38:02.524Z,101181.41
2023-06-27T22:40:29.428Z,101179.66
2023-06-27T22:42:56.278Z,101182.41
2023-06-27T22:45:23.123Z,101190.63
2023-06-27T22:47:50.039Z,101184.44
2023-06-27T22:50:16.963Z,101187.22
2023-06-27T22:52:43.772Z,101183.72
2023-06-27T22:55:10.762Z,101183.78
2023-06-27T22:57:37.620Z,101185.69
2023-06-27T23:00:05.827Z,101193.88
2023-06-27T23:02:32.741Z,101184.97
2023-06-27T23:04:59.722Z,101185.97
2023-06-27T23:07:26.679Z,101186.00
2023-06-27T23:09:53.636Z,101191.50
2023-06-27T23:12:20.448Z,101191.56
2023-06-27T23:14:47.311Z,101180.06
2023-06-27T23:17:14.140Z,101187.25
2023-06-27T23:19:40.949Z,101189.16
2023-06-27T23:22:13.564Z,101189.28
2023-06-27T23:24:42.349Z,101179.53
2023-06-27T23:27:09.267Z,101177.78
2023-06-27T23:29:37.254Z,101185.97
2023-06-27T23:32:05.989Z,101198.59
2023-06-27T23:34:33.031Z,101198.69
2023-06-27T23:36:59.908Z,101192.47
2023-06-27T23:39:26.844Z,101192.59
2023-06-27T23:41:53.776Z,101188.22
2023-06-27T23:44:20.673Z,101183.78
2023-06-27T23:46:47.609Z,101180.28
2023-06-27T23:49:14.493Z,101183.94
2023-06-27T23:51:41.369Z,101177.78
2023-06-27T23:54:08.237Z,101175.22
2023-06-27T23:56:35.111Z,101182.44
2023-06-27T23:59:02.090Z,101190.59
